Packwood, Iowa
Current Conditions -  °F | °C
As of 2:15 AM on Sunday 21 Dec 2014 (Local Time) from KFFL Reporting Station
Overcast Overcast  
Wind Chill: 31°   Ceiling: 2900
Heat Index: 37°   Visibility: 7mi
Dew Point: 34°   Wind: 9mph
Humidity: 87%   Direction: 190°S
Pressure: 30.13"   Gusts: NA
Location:  41.13°N, 92.08°W
Report Text: KFFL 210815Z AUTO 19008KT 7SM OVC029 03/01 A3013 RMK AO2
Loading
Personal Weather Stations






























Interactive Weather Map New forecast layout! Learn more

10-Day Weather Forecast

Advertisements
Track Severe Weather on mobile